sensor_id;sensor_type;location;lat;lon;timestamp;temperature;humidity
13610;DHT22;6876;50.788;4.940;2023-04-01T00:01:30;10.10;99.90
13610;DHT22;6876;50.788;4.940;2023-04-01T00:04:17;10.10;99.90
13610;DHT22;6876;50.788;4.940;2023-04-01T00:07:06;10.10;99.90
13610;DHT22;6876;50.788;4.940;2023-04-01T00:09:53;10.10;99.90
13610;DHT22;6876;50.788;4.940;2023-04-01T00:12:41;10.00;99.90
13610;DHT22;6876;50.788;4.940;2023-04-01T00:15:28;10.10;99.90
13610;DHT22;6876;50.788;4.940;2023-04-01T00:18:17;10.10;99.90
13610;DHT22;6876;50.788;4.940;2023-04-01T00:21:04;10.10;99.90
13610;DHT22;6876;50.788;4.940;2023-04-01T00:23:53;10.00;99.90
13610;DHT22;6876;50.788;4.940;2023-04-01T00:26:41;10.10;99.90
13610;DHT22;6876;50.788;4.940;2023-04-01T00:29:30;10.00;99.90
13610;DHT22;6876;50.788;4.940;2023-04-01T00:32:17;10.10;99.90
13610;DHT22;6876;50.788;4.940;2023-04-01T00:35:05;10.10;99.90
13610;DHT22;6876;50.788;4.940;2023-04-01T00:37:52;10.10;99.90
13610;DHT22;6876;50.788;4.940;2023-04-01T00:40:43;10.10;99.90
13610;DHT22;6876;50.788;4.940;2023-04-01T00:43:31;10.10;99.90
13610;DHT22;6876;50.788;4.940;2023-04-01T00:46:19;10.10;99.90
13610;DHT22;6876;50.788;4.940;2023-04-01T00:49:06;10.10;99.90
13610;DHT22;6876;50.788;4.940;2023-04-01T00:51:55;10.10;99.90
13610;DHT22;6876;50.788;4.940;2023-04-01T00:54:47;10.10;99.90
13610;DHT22;6876;50.788;4.940;2023-04-01T00:57:37;10.10;99.90
13610;DHT22;6876;50.788;4.940;2023-04-01T01:00:27;10.10;99.90
13610;DHT22;6876;50.788;4.940;2023-04-01T01:03:14;10.00;99.90
13610;DHT22;6876;50.788;4.940;2023-04-01T01:06:18;10.00;99.90
13610;DHT22;6876;50.788;4.940;2023-04-01T01:09:33;10.00;99.90
13610;DHT22;6876;50.788;4.940;2023-04-01T01:12:27;10.00;99.90
13610;DHT22;6876;50.788;4.940;2023-04-01T01:15:21;10.00;99.90
13610;DHT22;6876;50.788;4.940;2023-04-01T01:18:17;10.00;99.90
13610;DHT22;6876;50.788;4.940;2023-04-01T01:21:30;9.90;99.90
13610;DHT22;6876;50.788;4.940;2023-04-01T01:24:51;9.90;99.90
13610;DHT22;6876;50.788;4.940;2023-04-01T01:27:46;9.90;99.90
13610;DHT22;6876;50.788;4.940;2023-04-01T01:30:41;9.90;99.90
13610;DHT22;6876;50.788;4.940;2023-04-01T01:33:39;9.90;99.90
13610;DHT22;6876;50.788;4.940;2023-04-01T01:36:33;9.90;99.90
13610;DHT22;6876;50.788;4.940;2023-04-01T01:39:24;9.90;99.90
13610;DHT22;6876;50.788;4.940;2023-04-01T01:42:15;9.90;99.90
13610;DHT22;6876;50.788;4.940;2023-04-01T01:45:06;9.90;99.90
13610;DHT22;6876;50.788;4.940;2023-04-01T01:47:55;9.90;99.90
13610;DHT22;6876;50.788;4.940;2023-04-01T01:50:45;9.90;99.90
13610;DHT22;6876;50.788;4.940;2023-04-01T01:53:34;9.90;99.90
13610;DHT22;6876;50.788;4.940;2023-04-01T01:56:23;9.90;99.90
13610;DHT22;6876;50.788;4.940;2023-04-01T01:59:15;10.00;99.90
13610;DHT22;6876;50.788;4.940;2023-04-01T02:02:03;10.00;99.90
13610;DHT22;6876;50.788;4.940;2023-04-01T02:04:54;10.00;99.90
13610;DHT22;6876;50.788;4.940;2023-04-01T02:07:44;10.00;99.90
13610;DHT22;6876;50.788;4.940;2023-04-01T02:10:38;10.00;99.90
13610;DHT22;6876;50.788;4.940;2023-04-01T02:13:31;10.00;99.90
13610;DHT22;6876;50.788;4.940;2023-04-01T02:16:23;10.00;99.90
13610;DHT22;6876;50.788;4.940;2023-04-01T02:19:13;10.00;99.90
13610;DHT22;6876;50.788;4.940;2023-04-01T02:22:04;9.90;99.90
13610;DHT22;6876;50.788;4.940;2023-04-01T02:24:57;9.90;99.90
13610;DHT22;6876;50.788;4.940;2023-04-01T02:27:47;10.00;99.90
13610;DHT22;6876;50.788;4.940;2023-04-01T02:30:35;9.90;99.90
13610;DHT22;6876;50.788;4.940;2023-04-01T02:33:23;9.90;99.90
13610;DHT22;6876;50.788;4.940;2023-04-01T02:36:12;10.00;99.90
13610;DHT22;6876;50.788;4.940;2023-04-01T02:39:00;9.80;99.90
13610;DHT22;6876;50.788;4.940;2023-04-01T02:41:48;9.90;99.90
13610;DHT22;6876;50.788;4.940;2023-04-01T02:44:37;9.80;99.90
13610;DHT22;6876;50.788;4.940;2023-04-01T02:47:24;9.80;99.90
13610;DHT22;6876;50.788;4.940;2023-04-01T02:50:12;9.80;99.90
13610;DHT22;6876;50.788;4.940;2023-04-01T02:52:59;9.80;99.90
13610;DHT22;6876;50.788;4.940;2023-04-01T02:55:47;9.80;99.90
13610;DHT22;6876;50.788;4.940;2023-04-01T02:58:36;9.80;99.90
13610;DHT22;6876;50.788;4.940;2023-04-01T03:01:24;9.70;99.90
13610;DHT22;6876;50.788;4.940;2023-04-01T03:04:12;9.70;99.90
13610;DHT22;6876;50.788;4.940;2023-04-01T03:06:59;9.80;99.90
13610;DHT22;6876;50.788;4.940;2023-04-01T03:09:46;9.80;99.90
13610;DHT22;6876;50.788;4.940;2023-04-01T03:12:33;9.70;99.90
13610;DHT22;6876;50.788;4.940;2023-04-01T03:15:21;9.60;99.90
13610;DHT22;6876;50.788;4.940;2023-04-01T03:18:09;9.60;99.90
13610;DHT22;6876;50.788;4.940;2023-04-01T03:20:57;9.70;99.90
13610;DHT22;6876;50.788;4.940;2023-04-01T03:23:44;9.70;99.90
13610;DHT22;6876;50.788;4.940;2023-04-01T03:26:31;9.70;99.90
13610;DHT22;6876;50.788;4.940;2023-04-01T03:29:19;9.70;99.90
13610;DHT22;6876;50.788;4.940;2023-04-01T03:32:06;9.60;99.90
13610;DHT22;6876;50.788;4.940;2023-04-01T03:34:55;9.60;99.90
13610;DHT22;6876;50.788;4.940;2023-04-01T03:37:42;9.60;99.90
13610;DHT22;6876;50.788;4.940;2023-04-01T03:40:30;9.60;99.90
13610;DHT22;6876;50.788;4.940;2023-04-01T03:43:18;9.60;99.90
13610;DHT22;6876;50.788;4.940;2023-04-01T03:46:06;9.60;99.90
13610;DHT22;6876;50.788;4.940;2023-04-01T03:48:53;9.60;99.90
13610;DHT22;6876;50.788;4.940;2023-04-01T03:51:43;9.60;99.90
13610;DHT22;6876;50.788;4.940;2023-04-01T03:54:30;9.50;99.90
13610;DHT22;6876;50.788;4.940;2023-04-01T03:57:18;9.50;99.90
13610;DHT22;6876;50.788;4.940;2023-04-01T04:00:06;9.50;99.90
13610;DHT22;6876;50.788;4.940;2023-04-01T04:02:55;9.50;99.90
13610;DHT22;6876;50.788;4.940;2023-04-01T04:05:46;9.50;99.90
13610;DHT22;6876;50.788;4.940;2023-04-01T04:08:35;9.50;99.90
13610;DHT22;6876;50.788;4.940;2023-04-01T04:11:22;9.50;99.90
13610;DHT22;6876;50.788;4.940;2023-04-01T04:14:10;9.50;99.90
13610;DHT22;6876;50.788;4.940;2023-04-01T04:16:57;9.50;99.90
13610;DHT22;6876;50.788;4.940;2023-04-01T04:19:45;9.40;99.90
13610;DHT22;6876;50.788;4.940;2023-04-01T04:22:32;9.50;99.90
13610;DHT22;6876;50.788;4.940;2023-04-01T04:25:21;9.40;99.90
13610;DHT22;6876;50.788;4.940;2023-04-01T04:28:08;9.50;99.90
13610;DHT22;6876;50.788;4.940;2023-04-01T04:30:55;9.40;99.90
13610;DHT22;6876;50.788;4.940;2023-04-01T04:33:43;9.50;99.90
13610;DHT22;6876;50.788;4.940;2023-04-01T04:36:30;9.50;99.90
13610;DHT22;6876;50.788;4.940;2023-04-01T04:39:17;9.50;99.90
13610;DHT22;6876;50.788;4.940;2023-04-01T04:42:06;9.50;99.90
13610;DHT22;6876;50.788;4.940;2023-04-01T04:44:54;9.50;99.90
13610;DHT22;6876;50.788;4.940;2023-04-01T04:47:41;9.50;99.90
13610;DHT22;6876;50.788;4.940;2023-04-01T04:50:28;9.50;99.90
13610;DHT22;6876;50.788;4.940;2023-04-01T04:53:17;9.50;99.90
13610;DHT22;6876;50.788;4.940;2023-04-01T04:56:05;9.50;99.90
13610;DHT22;6876;50.788;4.940;2023-04-01T04:58:54;9.40;99.90
13610;DHT22;6876;50.788;4.940;2023-04-01T05:01:41;9.40;99.90
13610;DHT22;6876;50.788;4.940;2023-04-01T05:04:29;9.40;99.90
13610;DHT22;6876;50.788;4.940;2023-04-01T05:07:16;9.40;99.90
13610;DHT22;6876;50.788;4.940;2023-04-01T05:10:04;9.30;99.90
13610;DHT22;6876;50.788;4.940;2023-04-01T05:12:51;9.30;99.90
13610;DHT22;6876;50.788;4.940;2023-04-01T05:15:40;9.30;99.90
13610;DHT22;6876;50.788;4.940;2023-04-01T05:18:28;9.40;99.90
13610;DHT22;6876;50.788;4.940;2023-04-01T05:21:15;9.40;99.90
13610;DHT22;6876;50.788;4.940;2023-04-01T05:24:02;9.30;99.90
13610;DHT22;6876;50.788;4.940;2023-04-01T05:26:50;9.30;99.90
13610;DHT22;6876;50.788;4.940;2023-04-01T05:29:37;9.30;99.90
13610;DHT22;6876;50.788;4.940;2023-04-01T05:32:25;9.30;99.90
13610;DHT22;6876;50.788;4.940;2023-04-01T05:35:13;9.30;99.90
13610;DHT22;6876;50.788;4.940;2023-04-01T05:38:00;9.30;99.90
13610;DHT22;6876;50.788;4.940;2023-04-01T05:40:47;9.40;99.90
13610;DHT22;6876;50.788;4.940;2023-04-01T05:43:36;9.30;99.90
13610;DHT22;6876;50.788;4.940;2023-04-01T05:46:23;9.40;99.90
13610;DHT22;6876;50.788;4.940;2023-04-01T05:49:12;9.40;99.90
13610;DHT22;6876;50.788;4.940;2023-04-01T05:51:59;9.40;99.90
13610;DHT22;6876;50.788;4.940;2023-04-01T05:54:46;9.50;99.90
13610;DHT22;6876;50.788;4.940;2023-04-01T05:57:33;9.50;99.90
13610;DHT22;6876;50.788;4.940;2023-04-01T06:00:21;9.50;99.90
13610;DHT22;6876;50.788;4.940;2023-04-01T06:03:08;9.40;99.90
13610;DHT22;6876;50.788;4.940;2023-04-01T06:05:57;9.40;99.90
13610;DHT22;6876;50.788;4.940;2023-04-01T06:08:44;9.50;99.90
13610;DHT22;6876;50.788;4.940;2023-04-01T06:11:37;9.40;99.90
13610;DHT22;6876;50.788;4.940;2023-04-01T06:14:35;9.50;99.90
13610;DHT22;6876;50.788;4.940;2023-04-01T06:17:30;9.40;99.90
13610;DHT22;6876;50.788;4.940;2023-04-01T06:20:25;9.50;99.90
13610;DHT22;6876;50.788;4.940;2023-04-01T06:23:32;9.40;99.90
13610;DHT22;6876;50.788;4.940;2023-04-01T06:26:26;9.50;99.90
13610;DHT22;6876;50.788;4.940;2023-04-01T06:29:29;9.50;99.90
13610;DHT22;6876;50.788;4.940;2023-04-01T06:32:40;9.50;99.90
13610;DHT22;6876;50.788;4.940;2023-04-01T06:35:48;9.60;99.90
13610;DHT22;6876;50.788;4.940;2023-04-01T06:39:01;9.60;99.90
13610;DHT22;6876;50.788;4.940;2023-04-01T06:45:19;9.60;99.90
13610;DHT22;6876;50.788;4.940;2023-04-01T06:48:32;9.60;99.90
13610;DHT22;6876;50.788;4.940;2023-04-01T06:51:30;9.60;99.90
13610;DHT22;6876;50.788;4.940;2023-04-01T06:54:25;9.50;99.90
13610;DHT22;6876;50.788;4.940;2023-04-01T06:57:20;9.50;99.90
13610;DHT22;6876;50.788;4.940;2023-04-01T07:00:13;9.50;99.90
13610;DHT22;6876;50.788;4.940;2023-04-01T07:03:06;9.60;99.90
13610;DHT22;6876;50.788;4.940;2023-04-01T07:05:59;9.60;99.90
13610;DHT22;6876;50.788;4.940;2023-04-01T07:08:50;9.60;99.90
13610;DHT22;6876;50.788;4.940;2023-04-01T07:11:40;9.60;99.90
13610;DHT22;6876;50.788;4.940;2023-04-01T07:14:30;9.60;99.90
13610;DHT22;6876;50.788;4.940;2023-04-01T07:17:21;9.70;99.90
13610;DHT22;6876;50.788;4.940;2023-04-01T07:20:16;9.60;99.90
13610;DHT22;6876;50.788;4.940;2023-04-01T07:23:06;9.60;99.90
13610;DHT22;6876;50.788;4.940;2023-04-01T07:25:58;9.60;99.90
13610;DHT22;6876;50.788;4.940;2023-04-01T07:28:48;9.60;99.90
13610;DHT22;6876;50.788;4.940;2023-04-01T07:31:56;9.70;99.90
13610;DHT22;6876;50.788;4.940;2023-04-01T07:35:09;9.70;99.90
13610;DHT22;6876;50.788;4.940;2023-04-01T07:38:13;9.70;99.90
13610;DHT22;6876;50.788;4.940;2023-04-01T07:41:06;9.80;99.90
13610;DHT22;6876;50.788;4.940;2023-04-01T07:44:04;9.80;99.90
13610;DHT22;6876;50.788;4.940;2023-04-01T07:47:00;9.80;99.90
13610;DHT22;6876;50.788;4.940;2023-04-01T07:49:59;9.80;99.90
13610;DHT22;6876;50.788;4.940;2023-04-01T07:52:58;9.80;99.90
13610;DHT22;6876;50.788;4.940;2023-04-01T07:55:52;9.80;99.90
13610;DHT22;6876;50.788;4.940;2023-04-01T07:58:54;9.80;99.90
13610;DHT22;6876;50.788;4.940;2023-04-01T08:01:49;9.90;99.90
13610;DHT22;6876;50.788;4.940;2023-04-01T08:04:47;9.90;99.90
13610;DHT22;6876;50.788;4.940;2023-04-01T08:07:45;10.00;99.90
13610;DHT22;6876;50.788;4.940;2023-04-01T08:10:37;10.10;99.90
13610;DHT22;6876;50.788;4.940;2023-04-01T08:13:34;10.10;99.90
13610;DHT22;6876;50.788;4.940;2023-04-01T08:16:33;10.10;99.90
13610;DHT22;6876;50.788;4.940;2023-04-01T08:19:30;10.20;99.90
13610;DHT22;6876;50.788;4.940;2023-04-01T08:22:22;10.20;99.90
13610;DHT22;6876;50.788;4.940;2023-04-01T08:25:16;10.20;99.90
13610;DHT22;6876;50.788;4.940;2023-04-01T08:28:10;10.20;99.90
13610;DHT22;6876;50.788;4.940;2023-04-01T08:31:04;10.30;99.90
13610;DHT22;6876;50.788;4.940;2023-04-01T08:33:54;10.30;99.90
13610;DHT22;6876;50.788;4.940;2023-04-01T08:36:46;10.30;99.90
13610;DHT22;6876;50.788;4.940;2023-04-01T08:39:39;10.30;99.90
13610;DHT22;6876;50.788;4.940;2023-04-01T08:42:40;10.20;99.90
13610;DHT22;6876;50.788;4.940;2023-04-01T08:45:44;10.20;99.90
13610;DHT22;6876;50.788;4.940;2023-04-01T08:48:48;10.30;99.90
13610;DHT22;6876;50.788;4.940;2023-04-01T08:52:10;10.40;99.90
13610;DHT22;6876;50.788;4.940;2023-04-01T08:55:24;10.40;99.90
13610;DHT22;6876;50.788;4.940;2023-04-01T08:58:42;10.40;99.90
13610;DHT22;6876;50.788;4.940;2023-04-01T09:01:55;10.60;99.90
13610;DHT22;6876;50.788;4.940;2023-04-01T09:05:01;10.60;99.90
13610;DHT22;6876;50.788;4.940;2023-04-01T09:08:01;10.60;99.90
13610;DHT22;6876;50.788;4.940;2023-04-01T09:11:09;10.70;99.90
13610;DHT22;6876;50.788;4.940;2023-04-01T09:14:10;10.80;99.90
13610;DHT22;6876;50.788;4.940;2023-04-01T09:17:30;10.80;99.90
13610;DHT22;6876;50.788;4.940;2023-04-01T09:20:45;11.10;99.90
13610;DHT22;6876;50.788;4.940;2023-04-01T09:23:54;11.00;99.90
13610;DHT22;6876;50.788;4.940;2023-04-01T09:26:57;11.00;99.90
13610;DHT22;6876;50.788;4.940;2023-04-01T09:30:06;10.80;99.90
13610;DHT22;6876;50.788;4.940;2023-04-01T09:36:43;10.80;99.90
13610;DHT22;6876;50.788;4.940;2023-04-01T09:39:36;10.80;99.90
13610;DHT22;6876;50.788;4.940;2023-04-01T09:42:42;10.80;99.90
13610;DHT22;6876;50.788;4.940;2023-04-01T09:45:41;10.80;99.90
13610;DHT22;6876;50.788;4.940;2023-04-01T09:48:56;10.90;99.90
13610;DHT22;6876;50.788;4.940;2023-04-01T09:51:55;11.00;99.90
13610;DHT22;6876;50.788;4.940;2023-04-01T09:55:02;11.00;99.90
13610;DHT22;6876;50.788;4.940;2023-04-01T10:01:49;11.10;99.90
13610;DHT22;6876;50.788;4.940;2023-04-01T10:05:13;11.10;99.90
13610;DHT22;6876;50.788;4.940;2023-04-01T10:18:52;11.10;99.90
13610;DHT22;6876;50.788;4.940;2023-04-01T10:25:34;11.20;99.90
13610;DHT22;6876;50.788;4.940;2023-04-01T10:28:41;11.30;99.90
13610;DHT22;6876;50.788;4.940;2023-04-01T10:35:24;11.50;99.90
13610;DHT22;6876;50.788;4.940;2023-04-01T10:38:41;11.40;99.90
13610;DHT22;6876;50.788;4.940;2023-04-01T10:42:14;11.40;99.90
13610;DHT22;6876;50.788;4.940;2023-04-01T10:45:31;11.40;99.90
13610;DHT22;6876;50.788;4.940;2023-04-01T10:54:49;11.70;99.90
13610;DHT22;6876;50.788;4.940;2023-04-01T10:58:05;11.90;99.90
13610;DHT22;6876;50.788;4.940;2023-04-01T11:01:29;12.10;99.90
13610;DHT22;6876;50.788;4.940;2023-04-01T11:15:31;12.40;99.90
13610;DHT22;6876;50.788;4.940;2023-04-01T11:18:41;12.40;99.90
13610;DHT22;6876;50.788;4.940;2023-04-01T11:22:08;12.40;99.90
13610;DHT22;6876;50.788;4.940;2023-04-01T11:25:18;12.30;99.90
13610;DHT22;6876;50.788;4.940;2023-04-01T11:28:39;12.40;99.90
13610;DHT22;6876;50.788;4.940;2023-04-01T11:31:39;12.10;99.90
13610;DHT22;6876;50.788;4.940;2023-04-01T11:34:55;12.00;99.90
13610;DHT22;6876;50.788;4.940;2023-04-01T11:37:51;12.20;99.90
13610;DHT22;6876;50.788;4.940;2023-04-01T11:40:47;12.20;99.90
13610;DHT22;6876;50.788;4.940;2023-04-01T11:43:43;12.30;99.90
13610;DHT22;6876;50.788;4.940;2023-04-01T11:46:39;12.30;99.90
13610;DHT22;6876;50.788;4.940;2023-04-01T11:49:36;12.00;99.90
13610;DHT22;6876;50.788;4.940;2023-04-01T11:52:56;11.90;99.90
13610;DHT22;6876;50.788;4.940;2023-04-01T11:56:02;12.10;99.90
13610;DHT22;6876;50.788;4.940;2023-04-01T12:02:24;12.00;99.90
13610;DHT22;6876;50.788;4.940;2023-04-01T12:05:25;12.10;99.90
13610;DHT22;6876;50.788;4.940;2023-04-01T12:08:28;12.40;99.90
13610;DHT22;6876;50.788;4.940;2023-04-01T12:11:25;12.70;99.90
13610;DHT22;6876;50.788;4.940;2023-04-01T12:14:19;13.10;99.90
13610;DHT22;6876;50.788;4.940;2023-04-01T12:17:11;13.10;99.90
13610;DHT22;6876;50.788;4.940;2023-04-01T12:20:20;12.90;99.90
13610;DHT22;6876;50.788;4.940;2023-04-01T12:23:25;12.60;99.90
13610;DHT22;6876;50.788;4.940;2023-04-01T12:26:43;12.30;99.90
13610;DHT22;6876;50.788;4.940;2023-04-01T12:29:55;12.30;99.90
13610;DHT22;6876;50.788;4.940;2023-04-01T12:32:56;12.20;99.90
13610;DHT22;6876;50.788;4.940;2023-04-01T12:35:58;12.20;99.90
13610;DHT22;6876;50.788;4.940;2023-04-01T12:39:14;12.10;99.90
13610;DHT22;6876;50.788;4.940;2023-04-01T12:42:14;11.80;99.90
13610;DHT22;6876;50.788;4.940;2023-04-01T12:45:25;11.60;99.90
13610;DHT22;6876;50.788;4.940;2023-04-01T12:51:57;11.30;99.90
13610;DHT22;6876;50.788;4.940;2023-04-01T12:55:12;11.60;99.90
13610;DHT22;6876;50.788;4.940;2023-04-01T12:58:21;11.90;99.90
13610;DHT22;6876;50.788;4.940;2023-04-01T13:01:29;12.00;99.90
13610;DHT22;6876;50.788;4.940;2023-04-01T13:07:56;12.10;99.90
13610;DHT22;6876;50.788;4.940;2023-04-01T13:11:02;11.90;99.90
13610;DHT22;6876;50.788;4.940;2023-04-01T13:14:21;11.90;99.90
13610;DHT22;6876;50.788;4.940;2023-04-01T13:17:15;12.10;99.90
13610;DHT22;6876;50.788;4.940;2023-04-01T13:20:11;12.10;99.90
13610;DHT22;6876;50.788;4.940;2023-04-01T13:23:09;11.80;99.90
13610;DHT22;6876;50.788;4.940;2023-04-01T13:26:05;11.50;99.90
13610;DHT22;6876;50.788;4.940;2023-04-01T13:28:59;11.30;99.90
13610;DHT22;6876;50.788;4.940;2023-04-01T13:32:06;11.20;99.90
13610;DHT22;6876;50.788;4.940;2023-04-01T13:35:11;11.30;99.90
13610;DHT22;6876;50.788;4.940;2023-04-01T13:41:27;11.40;99.90
13610;DHT22;6876;50.788;4.940;2023-04-01T13:44:22;11.50;99.90
13610;DHT22;6876;50.788;4.940;2023-04-01T13:47:29;11.60;99.90
13610;DHT22;6876;50.788;4.940;2023-04-01T13:50:34;11.60;99.90
13610;DHT22;6876;50.788;4.940;2023-04-01T13:53:57;11.60;99.90
13610;DHT22;6876;50.788;4.940;2023-04-01T13:57:00;11.60;99.90
13610;DHT22;6876;50.788;4.940;2023-04-01T14:00:02;11.60;99.90
13610;DHT22;6876;50.788;4.940;2023-04-01T14:03:19;11.50;99.90
13610;DHT22;6876;50.788;4.940;2023-04-01T14:06:31;11.40;99.90
13610;DHT22;6876;50.788;4.940;2023-04-01T14:09:49;11.60;99.90
13610;DHT22;6876;50.788;4.940;2023-04-01T14:12:43;11.60;99.90
13610;DHT22;6876;50.788;4.940;2023-04-01T14:15:52;11.70;99.90
13610;DHT22;6876;50.788;4.940;2023-04-01T14:18:57;11.60;99.90
13610;DHT22;6876;50.788;4.940;2023-04-01T14:21:51;11.50;99.90
13610;DHT22;6876;50.788;4.940;2023-04-01T14:25:10;11.70;99.90
13610;DHT22;6876;50.788;4.940;2023-04-01T14:28:11;11.80;99.90
13610;DHT22;6876;50.788;4.940;2023-04-01T14:31:21;11.80;99.90
13610;DHT22;6876;50.788;4.940;2023-04-01T14:34:24;11.60;99.90
13610;DHT22;6876;50.788;4.940;2023-04-01T14:37:26;11.70;99.90
13610;DHT22;6876;50.788;4.940;2023-04-01T14:40:27;11.50;99.90
13610;DHT22;6876;50.788;4.940;2023-04-01T14:49:52;11.00;99.90
13610;DHT22;6876;50.788;4.940;2023-04-01T14:52:54;11.00;99.90
13610;DHT22;6876;50.788;4.940;2023-04-01T14:55:49;11.00;99.90
13610;DHT22;6876;50.788;4.940;2023-04-01T14:58:44;11.00;99.90
13610;DHT22;6876;50.788;4.940;2023-04-01T15:01:39;11.00;99.90
13610;DHT22;6876;50.788;4.940;2023-04-01T15:04:56;10.90;99.90
13610;DHT22;6876;50.788;4.940;2023-04-01T15:08:01;10.80;99.90
13610;DHT22;6876;50.788;4.940;2023-04-01T15:10:59;10.70;99.90
13610;DHT22;6876;50.788;4.940;2023-04-01T15:14:01;10.80;99.90
13610;DHT22;6876;50.788;4.940;2023-04-01T15:16:59;11.00;99.90
13610;DHT22;6876;50.788;4.940;2023-04-01T15:23:15;11.40;99.90
13610;DHT22;6876;50.788;4.940;2023-04-01T15:26:33;11.70;99.90
13610;DHT22;6876;50.788;4.940;2023-04-01T15:29:56;11.90;99.90
13610;DHT22;6876;50.788;4.940;2023-04-01T15:32:56;11.80;99.90
13610;DHT22;6876;50.788;4.940;2023-04-01T15:35:51;11.80;99.90
13610;DHT22;6876;50.788;4.940;2023-04-01T15:38:46;11.60;99.90
13610;DHT22;6876;50.788;4.940;2023-04-01T15:41:40;11.60;99.90
13610;DHT22;6876;50.788;4.940;2023-04-01T15:44:52;11.60;99.90
13610;DHT22;6876;50.788;4.940;2023-04-01T15:47:44;11.60;99.90
13610;DHT22;6876;50.788;4.940;2023-04-01T15:50:53;11.50;99.90
13610;DHT22;6876;50.788;4.940;2023-04-01T15:54:03;11.40;99.90
13610;DHT22;6876;50.788;4.940;2023-04-01T15:57:08;11.40;99.90
13610;DHT22;6876;50.788;4.940;2023-04-01T16:03:21;11.20;99.90
13610;DHT22;6876;50.788;4.940;2023-04-01T16:06:38;11.20;99.90
13610;DHT22;6876;50.788;4.940;2023-04-01T16:09:40;11.20;99.90
13610;DHT22;6876;50.788;4.940;2023-04-01T16:12:40;11.30;99.90
13610;DHT22;6876;50.788;4.940;2023-04-01T16:15:41;11.20;99.90
13610;DHT22;6876;50.788;4.940;2023-04-01T16:19:03;11.20;99.90
13610;DHT22;6876;50.788;4.940;2023-04-01T16:21:54;11.20;99.90
13610;DHT22;6876;50.788;4.940;2023-04-01T16:24:48;11.10;99.90
13610;DHT22;6876;50.788;4.940;2023-04-01T16:27:42;11.00;99.90
13610;DHT22;6876;50.788;4.940;2023-04-01T16:30:37;11.00;99.90
13610;DHT22;6876;50.788;4.940;2023-04-01T16:33:35;11.10;99.90
13610;DHT22;6876;50.788;4.940;2023-04-01T16:36:29;11.20;99.90
13610;DHT22;6876;50.788;4.940;2023-04-01T16:39:29;11.10;99.90
13610;DHT22;6876;50.788;4.940;2023-04-01T16:42:25;11.00;99.90
13610;DHT22;6876;50.788;4.940;2023-04-01T16:45:23;10.90;99.90
13610;DHT22;6876;50.788;4.940;2023-04-01T16:48:15;10.70;99.90
13610;DHT22;6876;50.788;4.940;2023-04-01T16:51:10;10.80;99.90
13610;DHT22;6876;50.788;4.940;2023-04-01T16:54:05;10.90;99.90
13610;DHT22;6876;50.788;4.940;2023-04-01T16:56:55;10.80;99.90
13610;DHT22;6876;50.788;4.940;2023-04-01T16:59:46;10.60;99.90
13610;DHT22;6876;50.788;4.940;2023-04-01T17:02:38;10.50;99.90
13610;DHT22;6876;50.788;4.940;2023-04-01T17:05:43;10.50;99.90
13610;DHT22;6876;50.788;4.940;2023-04-01T17:08:49;10.40;99.90
13610;DHT22;6876;50.788;4.940;2023-04-01T17:11:47;10.20;99.90
13610;DHT22;6876;50.788;4.940;2023-04-01T17:14:45;10.20;99.90
13610;DHT22;6876;50.788;4.940;2023-04-01T17:17:47;10.20;99.90
13610;DHT22;6876;50.788;4.940;2023-04-01T17:20:42;10.10;99.90
13610;DHT22;6876;50.788;4.940;2023-04-01T17:23:34;10.10;99.90
13610;DHT22;6876;50.788;4.940;2023-04-01T17:26:30;10.10;99.90
13610;DHT22;6876;50.788;4.940;2023-04-01T17:29:23;10.10;99.90
13610;DHT22;6876;50.788;4.940;2023-04-01T17:32:20;10.10;99.90
13610;DHT22;6876;50.788;4.940;2023-04-01T17:35:19;10.10;99.90
13610;DHT22;6876;50.788;4.940;2023-04-01T17:38:20;10.10;99.90
13610;DHT22;6876;50.788;4.940;2023-04-01T17:41:16;10.00;99.90
13610;DHT22;6876;50.788;4.940;2023-04-01T17:44:18;9.90;99.90
13610;DHT22;6876;50.788;4.940;2023-04-01T17:50:37;9.80;99.90
13610;DHT22;6876;50.788;4.940;2023-04-01T17:53:39;9.70;99.90
13610;DHT22;6876;50.788;4.940;2023-04-01T17:56:37;9.70;99.90
13610;DHT22;6876;50.788;4.940;2023-04-01T17:59:33;9.70;99.90
13610;DHT22;6876;50.788;4.940;2023-04-01T18:02:25;9.70;99.90
13610;DHT22;6876;50.788;4.940;2023-04-01T18:05:24;9.70;99.90
13610;DHT22;6876;50.788;4.940;2023-04-01T18:08:17;9.70;99.90
13610;DHT22;6876;50.788;4.940;2023-04-01T18:11:28;9.60;99.90
13610;DHT22;6876;50.788;4.940;2023-04-01T18:17:46;9.60;99.90
13610;DHT22;6876;50.788;4.940;2023-04-01T18:20:42;9.60;99.90
13610;DHT22;6876;50.788;4.940;2023-04-01T18:23:36;9.60;99.90
13610;DHT22;6876;50.788;4.940;2023-04-01T18:26:30;9.60;99.90
13610;DHT22;6876;50.788;4.940;2023-04-01T18:29:28;9.60;99.90
13610;DHT22;6876;50.788;4.940;2023-04-01T18:32:26;9.60;99.90
13610;DHT22;6876;50.788;4.940;2023-04-01T18:35:21;9.60;99.90
13610;DHT22;6876;50.788;4.940;2023-04-01T18:38:13;9.50;99.90
13610;DHT22;6876;50.788;4.940;2023-04-01T18:41:14;9.60;99.90
13610;DHT22;6876;50.788;4.940;2023-04-01T18:44:16;9.70;99.90
13610;DHT22;6876;50.788;4.940;2023-04-01T18:47:15;9.70;99.90
13610;DHT22;6876;50.788;4.940;2023-04-01T18:50:13;9.60;99.90
13610;DHT22;6876;50.788;4.940;2023-04-01T18:53:13;9.60;99.90
13610;DHT22;6876;50.788;4.940;2023-04-01T18:56:03;9.60;99.90
13610;DHT22;6876;50.788;4.940;2023-04-01T18:58:58;9.70;99.90
13610;DHT22;6876;50.788;4.940;2023-04-01T19:01:55;9.60;99.90
13610;DHT22;6876;50.788;4.940;2023-04-01T19:04:50;9.60;99.90
13610;DHT22;6876;50.788;4.940;2023-04-01T19:07:42;9.60;99.90
13610;DHT22;6876;50.788;4.940;2023-04-01T19:10:37;9.60;99.90
13610;DHT22;6876;50.788;4.940;2023-04-01T19:13:32;9.60;99.90
13610;DHT22;6876;50.788;4.940;2023-04-01T19:16:34;9.60;99.90
13610;DHT22;6876;50.788;4.940;2023-04-01T19:19:37;9.60;99.90
13610;DHT22;6876;50.788;4.940;2023-04-01T19:22:39;9.60;99.90
13610;DHT22;6876;50.788;4.940;2023-04-01T19:25:35;9.60;99.90
13610;DHT22;6876;50.788;4.940;2023-04-01T19:28:34;9.50;99.90
13610;DHT22;6876;50.788;4.940;2023-04-01T19:31:39;9.50;99.90
13610;DHT22;6876;50.788;4.940;2023-04-01T19:34:41;9.50;99.90
13610;DHT22;6876;50.788;4.940;2023-04-01T19:37:36;9.50;99.90
13610;DHT22;6876;50.788;4.940;2023-04-01T19:40:37;9.50;99.90
13610;DHT22;6876;50.788;4.940;2023-04-01T19:43:50;9.50;99.90
13610;DHT22;6876;50.788;4.940;2023-04-01T19:46:43;9.40;99.90
13610;DHT22;6876;50.788;4.940;2023-04-01T19:49:47;9.40;99.90
13610;DHT22;6876;50.788;4.940;2023-04-01T19:52:37;9.40;99.90
13610;DHT22;6876;50.788;4.940;2023-04-01T19:55:34;9.40;99.90
13610;DHT22;6876;50.788;4.940;2023-04-01T19:58:27;9.40;99.90
13610;DHT22;6876;50.788;4.940;2023-04-01T20:01:23;9.40;99.90
13610;DHT22;6876;50.788;4.940;2023-04-01T20:04:15;9.40;99.90
13610;DHT22;6876;50.788;4.940;2023-04-01T20:07:09;9.30;99.90
13610;DHT22;6876;50.788;4.940;2023-04-01T20:10:04;9.30;99.90
13610;DHT22;6876;50.788;4.940;2023-04-01T20:13:00;9.30;99.90
13610;DHT22;6876;50.788;4.940;2023-04-01T20:16:00;9.30;99.90
13610;DHT22;6876;50.788;4.940;2023-04-01T20:18:51;9.30;99.90
13610;DHT22;6876;50.788;4.940;2023-04-01T20:21:44;9.30;99.90
13610;DHT22;6876;50.788;4.940;2023-04-01T20:24:41;9.20;99.90